Time;durP1;ratioP1;P1;durP2;ratioP2;P2;SDS_P1;SDS_P2;PMS_P1;PMS_P2;Temp;Humidity;BMP_temperature;BMP_pressure;BME280_temperature;BME280_humidity;BME280_pressure;Samples;Min_cycle;Max_cycle;Signal;HPM_P1;HPM_P2
2022/10/14 00:00:29;;;;;;;43.30;19.58;;;;;;;10.48;100.00;99131.19;4321038;33;20062;-75
2022/10/14 00:03:16;;;;;;;40.55;20.12;;;;;;;10.47;100.00;99116.06;4321338;33;20441;-76
2022/10/14 00:05:42;;;;;;;42.67;20.23;;;;;;;10.51;100.00;99071.47;4322054;33;20070;-77
2022/10/14 00:08:09;;;;;;;41.40;21.67;;;;;;;10.51;100.00;99076.84;4322183;33;20028;-76
2022/10/14 00:10:38;;;;;;;46.63;20.35;;;;;;;10.26;100.00;99079.94;4322642;33;20035;-77
2022/10/14 00:13:05;;;;;;;44.80;19.50;;;;;;;10.37;100.00;99086.31;4325131;33;20048;-75
2022/10/14 00:15:38;;;;;;;42.42;20.00;;;;;;;10.58;100.00;99091.97;4325803;33;20029;-76
2022/10/14 00:18:04;;;;;;;;;;;;;;;11.03;100.00;99128.69;4325204;33;20414;-76
2022/10/14 00:20:31;;;;;;;39.90;21.05;;;;;;;10.67;100.00;99128.19;4323037;33;19936;-75
2022/10/14 00:22:57;;;;;;;39.60;20.27;;;;;;;10.47;100.00;99075.69;4326334;33;20048;-75
2022/10/14 00:25:30;;;;;;;44.03;20.52;;;;;;;10.64;100.00;99117.91;4310378;33;20054;-75
2022/10/14 00:27:57;;;;;;;52.05;21.77;;;;;;;10.61;100.00;99110.31;4294962;33;20428;-77
2022/10/14 00:30:23;;;;;;;50.00;21.60;;;;;;;10.15;100.00;99068.19;4281106;33;20075;-75
2022/10/14 00:32:49;;;;;;;39.78;20.88;;;;;;;10.30;100.00;99085.63;4278321;33;20037;-75
2022/10/14 00:35:16;;;;;;;44.05;20.42;;;;;;;10.82;100.00;99108.75;4282458;33;20149;-75
2022/10/14 00:37:43;;;;;;;41.63;20.48;;;;;;;10.60;100.00;99116.81;4274092;33;20480;-75
2022/10/14 00:40:10;;;;;;;43.15;19.70;;;;;;;10.33;100.00;99079.78;4259484;33;20046;-76
2022/10/14 00:42:36;;;;;;;49.42;21.15;;;;;;;10.48;100.00;99061.19;4252952;33;20057;-75
2022/10/14 00:45:11;;;;;;;47.65;20.12;;;;;;;10.11;100.00;99056.28;4252431;33;20403;-75
2022/10/14 00:47:40;;;;;;;41.95;20.27;;;;;;;10.26;100.00;99057.56;4253658;33;20162;-78
2022/10/14 00:50:09;;;;;;;42.08;20.27;;;;;;;9.69;100.00;99037.88;4251533;33;20155;-78
2022/10/14 00:52:35;;;;;;;41.42;20.10;;;;;;;10.39;100.00;99056.44;4249091;33;20727;-77
2022/10/14 00:55:16;;;;;;;43.35;21.92;;;;;;;10.32;100.00;99105.91;4254053;33;20094;-77
2022/10/14 00:57:43;;;;;;;40.22;20.75;;;;;;;10.15;100.00;99105.88;4251795;33;20329;-77
2022/10/14 01:00:14;;;;;;;43.08;21.25;;;;;;;9.78;100.00;99052.56;4251522;33;20095;-78
2022/10/14 01:03:16;;;;;;;47.28;21.85;;;;;;;10.45;100.00;99101.22;4253458;33;20064;-77
2022/10/14 01:05:52;;;;;;;40.38;20.35;;;;;;;9.97;100.00;99049.63;4237459;33;20038;-77
2022/10/14 01:08:35;;;;;;;46.70;22.08;;;;;;;10.15;100.00;99100.50;4236570;33;20160;-76
2022/10/14 01:11:35;;;;;;;44.63;20.33;;;;;;;10.26;100.00;99042.28;4251906;33;20064;-77
2022/10/14 01:14:19;;;;;;;41.63;20.08;;;;;;;9.89;100.00;99007.00;4253612;33;20061;-76
2022/10/14 01:16:56;;;;;;;36.63;21.58;;;;;;;9.99;100.00;99087.88;4250525;33;20406;-76
2022/10/14 01:19:43;;;;;;;42.05;23.12;;;;;;;10.29;100.00;99075.94;4252547;33;20034;-76
2022/10/14 01:22:20;;;;;;;40.03;21.20;;;;;;;10.30;100.00;99080.25;4250032;33;20343;-77
2022/10/14 01:24:56;;;;;;;58.15;22.23;;;;;;;10.51;100.00;99079.53;4252182;33;20064;-76
2022/10/14 01:27:23;;;;;;;48.38;22.98;;;;;;;10.14;100.00;99034.28;4253570;33;20072;-76
2022/10/14 01:30:01;;;;;;;43.67;20.73;;;;;;;10.23;100.00;99033.84;4279089;33;20076;-77
2022/10/14 01:32:43;;;;;;;40.95;21.52;;;;;;;10.47;100.00;99061.44;4296817;33;20107;-76
2022/10/14 01:35:21;;;;;;;45.70;20.35;;;;;;;10.27;100.00;99069.97;4296200;33;20091;-76
2022/10/14 01:37:56;;;;;;;54.20;21.42;;;;;;;10.28;100.00;99067.03;4308392;33;20470;-77
2022/10/14 01:40:34;;;;;;;37.72;20.08;;;;;;;10.52;100.00;99073.06;4311421;33;20041;-77
2022/10/14 01:43:03;;;;;;;47.90;22.05;;;;;;;10.58;100.00;99067.75;4311584;33;20059;-76
2022/10/14 01:45:33;;;;;;;40.42;20.40;;;;;;;10.23;100.00;99031.16;4309555;33;20169;-77
2022/10/14 01:48:06;;;;;;;40.80;20.85;;;;;;;10.58;100.00;99059.66;4288544;33;20417;-76
2022/10/14 01:50:35;;;;;;;36.65;20.40;;;;;;;10.75;100.00;99065.81;4296006;33;20476;-77
2022/10/14 01:53:07;;;;;;;41.78;18.42;;;;;;;10.74;100.00;99064.22;4294467;33;20041;-79
2022/10/14 01:55:38;;;;;;;43.65;20.55;;;;;;;10.76;100.00;99023.56;4309293;33;20753;-76
2022/10/14 01:58:06;;;;;;;49.13;21.45;;;;;;;10.78;100.00;99038.38;4310424;33;20029;-76
2022/10/14 02:00:33;;;;;;;49.88;22.87;;;;;;;10.57;100.00;99025.75;4309170;33;20032;-78
2022/10/14 02:03:01;;;;;;;37.15;20.05;;;;;;;10.99;100.00;99060.19;4294637;33;20049;-80
2022/10/14 02:05:34;;;;;;;37.80;21.55;;;;;;;10.92;100.00;99062.28;4294699;33;20458;-77
2022/10/14 02:08:12;;;;;;;40.33;19.02;;;;;;;10.92;100.00;99064.97;4305751;33;20036;-77
2022/10/14 02:10:56;;;;;;;38.22;19.27;;;;;;;10.63;100.00;99019.38;4309962;33;20393;-76
2022/10/14 02:13:57;;;;;;;42.05;21.37;;;;;;;11.03;100.00;99055.94;4265628;33;20192;-77
2022/10/14 02:16:37;;;;;;;54.38;22.15;;;;;;;11.11;100.00;99058.19;4260646;33;20529;-79
2022/10/14 02:19:18;;;;;;;38.45;20.67;;;;;;;11.01;100.00;99058.03;4252554;33;20038;-77
2022/10/14 02:21:53;;;;;;;46.42;20.45;;;;;;;10.86;100.00;99051.41;4252443;33;20042;-76
2022/10/14 02:24:29;;;;;;;43.45;20.60;;;;;;;10.88;100.00;99060.06;4253190;33;20038;-76
2022/10/14 02:27:01;;;;;;;37.03;18.70;;;;;;;11.35;100.00;99036.34;4246219;33;20042;-77
2022/10/14 02:29:29;;;;;;;37.10;17.37;;;;;;;11.67;100.00;99060.62;4239174;33;20050;-77
2022/10/14 02:31:58;;;;;;;46.50;18.55;;;;;;;11.95;100.00;99061.41;4249448;33;20454;-77
2022/10/14 02:34:25;;;;;;;32.78;17.17;;;;;;;11.84;100.00;99025.44;4252299;33;20045;-77
2022/10/14 02:36:53;;;;;;;39.92;19.00;;;;;;;11.95;100.00;99051.47;4248372;33;20411;-76
2022/10/14 02:39:27;;;;;;;35.25;18.08;;;;;;;11.63;100.00;99011.78;4252271;33;20038;-77
2022/10/14 02:41:56;;;;;;;44.28;19.80;;;;;;;11.45;100.00;99004.91;4250135;33;20546;-77
2022/10/14 02:44:23;;;;;;;44.97;19.62;;;;;;;11.40;100.00;99044.47;4265751;33;20060;-78
2022/10/14 02:46:49;;;;;;;45.10;18.98;;;;;;;11.20;100.00;99032.41;4251366;33;20030;-76
2022/10/14 02:49:16;;;;;;;36.67;18.10;;;;;;;11.43;100.00;99043.97;4250862;33;20042;-77
2022/10/14 02:51:43;;;;;;;36.13;19.17;;;;;;;11.08;100.00;99004.78;4283644;33;20063;-78
2022/10/14 02:54:10;;;;;;;42.85;19.27;;;;;;;11.37;100.00;99044.97;4296075;33;20053;-77
2022/10/14 02:56:36;;;;;;;39.25;18.80;;;;;;;11.23;100.00;99007.66;4307940;33;20367;-77
2022/10/14 02:59:03;;;;;;;38.70;19.67;;;;;;;11.36;100.00;99009.13;4299798;33;20362;-77
2022/10/14 03:01:30;;;;;;;39.20;19.60;;;;;;;11.24;100.00;98998.47;4295341;33;20059;-79
2022/10/14 03:03:56;;;;;;;36.17;18.98;;;;;;;11.30;100.00;98996.66;4287381;33;20116;-77
2022/10/14 03:06:23;;;;;;;43.65;18.85;;;;;;;11.24;100.00;99005.75;4279126;33;20436;-77
2022/10/14 03:08:49;;;;;;;40.50;19.90;;;;;;;11.38;100.00;99030.44;4296900;33;20063;-77
2022/10/14 03:11:16;;;;;;;42.17;19.83;;;;;;;11.27;100.00;99035.72;4304907;33;20086;-77
2022/10/14 03:13:43;;;;;;;44.45;19.70;;;;;;;11.44;100.00;99034.81;4306033;33;20037;-79
2022/10/14 03:16:10;;;;;;;33.53;18.15;;;;;;;10.79;100.00;98983.47;4296974;33;20790;-77
2022/10/14 03:18:38;;;;;;;48.90;19.98;;;;;;;11.48;100.00;99024.31;4295942;33;20081;-76
2022/10/14 03:21:07;;;;;;;38.65;17.90;;;;;;;11.45;100.00;99009.47;4297962;33;20037;-77
2022/10/14 03:23:35;;;;;;;35.55;19.35;;;;;;;11.41;100.00;99009.16;4294020;33;20029;-79
2022/10/14 03:26:02;;;;;;;41.15;21.15;;;;;;;11.24;100.00;98982.31;4293137;33;20062;-78
2022/10/14 03:28:29;;;;;;;47.08;18.95;;;;;;;11.51;100.00;99024.63;4293729;33;20063;-78
2022/10/14 03:30:57;;;;;;;33.05;18.50;;;;;;;10.81;100.00;99032.50;4292600;33;20071;-79
2022/10/14 03:33:26;;;;;;;36.97;19.58;;;;;;;10.30;100.00;99004.91;4292820;33;20420;-78
2022/10/14 03:35:53;;;;;;;38.70;20.35;;;;;;;10.27;100.00;98983.88;4292332;33;20036;-77
2022/10/14 03:38:21;;;;;;;46.17;18.15;;;;;;;10.51;100.00;99027.56;4294228;33;20047;-78
2022/10/14 03:40:48;;;;;;;34.03;17.75;;;;;;;10.51;100.00;99036.47;4280505;33;20475;-77
2022/10/14 03:43:15;;;;;;;42.55;19.48;;;;;;;10.06;100.00;98999.72;4305818;33;20072;-77
2022/10/14 03:45:45;;;;;;;35.03;18.92;;;;;;;10.40;100.00;99010.44;4308289;33;20507;-78
2022/10/14 03:48:12;;;;;;;42.62;22.13;;;;;;;11.29;100.00;99042.75;4309888;33;20465;-78
2022/10/14 03:50:39;;;;;;;34.88;19.37;;;;;;;11.27;100.00;99034.91;4309517;33;20114;-78
2022/10/14 03:53:06;;;;;;;40.35;20.55;;;;;;;10.84;100.00;99039.28;4310119;33;20063;-77
2022/10/14 03:55:34;;;;;;;59.13;25.80;;;;;;;10.72;100.00;98993.59;4308088;33;20044;-79
2022/10/14 03:58:00;;;;;;;45.15;21.77;;;;;;;10.97;100.00;99000.38;4311150;33;20359;-78
2022/10/14 04:00:27;;;;;;;45.22;21.75;;;;;;;11.29;100.00;99038.16;4309179;33;20351;-79
2022/10/14 04:02:54;;;;;;;44.33;21.77;;;;;;;10.99;100.00;99022.47;4310862;33;20079;-77
2022/10/14 04:05:22;;;;;;;46.42;21.12;;;;;;;10.87;100.00;99036.88;4308617;33;20037;-77
2022/10/14 04:07:49;;;;;;;43.63;21.30;;;;;;;10.73;100.00;99019.47;4310497;33;20087;-78
2022/10/14 04:10:16;;;;;;;41.22;20.37;;;;;;;10.65;100.00;99006.47;4310587;33;20036;-79
2022/10/14 04:12:42;;;;;;;50.00;20.83;;;;;;;10.61;100.00;99005.31;4310163;33;20396;-77
2022/10/14 04:15:09;;;;;;;48.80;21.27;;;;;;;10.34;100.00;98949.56;4317096;33;20098;-79
2022/10/14 04:17:38;;;;;;;45.78;21.52;;;;;;;10.23;100.00;98988.09;4311315;33;20074;-76
2022/10/14 04:20:07;;;;;;;42.15;20.15;;;;;;;10.07;100.00;98936.81;4321686;33;20062;-76
2022/10/14 04:22:33;;;;;;;39.45;20.92;;;;;;;10.89;100.00;99010.50;4313453;33;20339;-76
2022/10/14 04:25:00;;;;;;;36.10;20.12;;;;;;;10.75;100.00;98989.63;4308439;33;20040;-77
2022/10/14 04:27:26;;;;;;;45.78;19.70;;;;;;;10.15;100.00;98968.66;4295323;33;20020;-78
2022/10/14 04:29:53;;;;;;;48.87;21.67;;;;;;;10.34;100.00;98947.69;4308278;33;20049;-77
2022/10/14 04:32:21;;;;;;;47.75;21.87;;;;;;;10.45;100.00;98991.69;4306812;33;20074;-77
2022/10/14 04:34:47;;;;;;;50.30;21.02;;;;;;;10.10;100.00;98957.81;4266446;33;20038;-77
2022/10/14 04:37:14;;;;;;;60.60;24.83;;;;;;;10.41;100.00;98995.94;4264902;33;20045;-78
2022/10/14 04:39:48;;;;;;;44.38;20.70;;;;;;;10.67;100.00;98988.16;4262790;33;20034;-77
2022/10/14 04:42:16;;;;;;;42.00;22.62;;;;;;;10.51;100.00;98923.41;4269804;33;20085;-77
2022/10/14 04:44:43;;;;;;;54.80;23.40;;;;;;;11.09;100.00;98990.25;4264424;33;20045;-77
2022/10/14 04:47:11;;;;;;;42.30;20.83;;;;;;;10.65;100.00;98966.06;4259996;33;20034;-77
2022/10/14 04:49:38;;;;;;;44.28;22.35;;;;;;;10.83;100.00;98965.75;4264619;33;20037;-77
2022/10/14 04:52:06;;;;;;;41.42;21.70;;;;;;;10.45;100.00;98985.47;4222703;33;20043;-77
2022/10/14 04:54:33;;;;;;;48.90;21.83;;;;;;;10.34;100.00;98987.25;4238972;33;20072;-76
2022/10/14 04:57:00;;;;;;;42.80;21.70;;;;;;;10.35;100.00;98970.00;4234460;33;20488;-77
2022/10/14 04:59:28;;;;;;;53.00;22.73;;;;;;;9.81;100.00;98901.50;4236270;33;20069;-78
2022/10/14 05:01:54;;;;;;;50.40;22.92;;;;;;;9.70;100.00;98923.91;4236168;33;20047;-76
2022/10/14 05:04:21;;;;;;;39.95;21.62;;;;;;;9.71;100.00;98963.16;4248323;33;20046;-77
2022/10/14 05:06:48;;;;;;;61.40;22.90;;;;;;;10.14;100.00;98967.00;4280370;33;20056;-76
2022/10/14 05:09:15;;;;;;;44.35;22.65;;;;;;;9.62;100.00;98940.44;4281146;33;20180;-77
2022/10/14 05:11:42;;;;;;;51.67;24.20;;;;;;;9.82;100.00;98942.63;4280596;33;20195;-78
2022/10/14 05:14:11;;;;;;;57.65;25.35;;;;;;;10.09;100.00;98977.72;4279569;33;20037;-79
2022/10/14 05:16:39;;;;;;;64.40;24.67;;;;;;;9.69;100.00;98924.97;4281726;33;20143;-77
2022/10/14 05:19:06;;;;;;;46.33;24.08;;;;;;;9.76;100.00;98936.34;4288611;33;20127;-77
2022/10/14 05:21:33;;;;;;;48.35;23.95;;;;;;;10.12;100.00;98981.78;4293610;33;20082;-77
2022/10/14 05:24:01;;;;;;;50.30;23.00;;;;;;;10.49;100.00;98971.25;4294650;33;20040;-77
2022/10/14 05:26:28;;;;;;;55.17;23.70;;;;;;;10.32;100.00;98944.44;4305400;33;20145;-80
2022/10/14 05:28:56;;;;;;;54.78;24.27;;;;;;;10.32;100.00;98970.47;4308679;33;20085;-77
2022/10/14 05:31:23;;;;;;;51.28;25.55;;;;;;;10.36;100.00;98944.72;4309337;33;20067;-75
2022/10/14 05:33:50;;;;;;;59.75;25.15;;;;;;;10.49;100.00;98965.88;4307748;33;20021;-76
2022/10/14 05:36:17;;;;;;;63.38;23.75;;;;;;;10.37;100.00;98973.28;4307805;33;20074;-78
2022/10/14 05:38:43;;;;;;;51.15;24.90;;;;;;;10.42;100.00;98927.59;4306879;33;20059;-76
2022/10/14 05:41:09;;;;;;;58.75;25.25;;;;;;;10.28;100.00;98958.59;4308465;33;20037;-77
2022/10/14 05:43:37;;;;;;;62.40;24.85;;;;;;;10.53;100.00;98958.94;4310593;33;20066;-77
2022/10/14 05:46:04;;;;;;;44.90;24.50;;;;;;;10.40;100.00;98924.31;4308726;33;20094;-78
2022/10/14 05:48:31;;;;;;;58.42;25.40;;;;;;;10.73;100.00;98965.63;4308422;33;20239;-77
2022/10/14 05:51:01;;;;;;;50.67;23.50;;;;;;;10.22;100.00;98927.31;4310439;33;20153;-77
2022/10/14 05:53:28;;;;;;;50.17;22.77;;;;;;;10.57;100.00;98971.91;4309590;33;20062;-76
2022/10/14 05:56:05;;;;;;;65.25;29.08;;;;;;;10.64;100.00;98934.81;4306648;33;20054;-77
2022/10/14 05:58:32;;;;;;;56.00;23.73;;;;;;;11.08;100.00;98953.59;4309536;33;20096;-77
2022/10/14 06:01:04;;;;;;;54.88;26.05;;;;;;;11.11;100.00;98950.41;4308138;33;20132;-77
2022/10/14 06:03:31;;;;;;;60.12;23.52;;;;;;;11.08;100.00;98994.00;4309991;33;20062;-76
2022/10/14 06:05:58;;;;;;;52.20;25.65;;;;;;;11.24;100.00;98959.94;4336845;33;20047;-77
2022/10/14 06:08:27;;;;;;;49.95;24.55;;;;;;;10.97;100.00;98946.47;4339142;33;20024;-77
2022/10/14 06:10:53;;;;;;;65.22;27.13;;;;;;;11.45;100.00;98993.28;4334924;33;20036;-80
2022/10/14 06:13:20;;;;;;;46.58;24.67;;;;;;;11.51;100.00;98994.97;4324912;33;20059;-81
2022/10/14 06:15:47;;;;;;;59.58;25.73;;;;;;;11.18;100.00;98940.22;4325443;33;20044;-82
2022/10/14 06:18:13;;;;;;;60.22;26.25;;;;;;;11.31;100.00;98943.56;4331303;33;20118;-79
2022/10/14 06:20:40;;;;;;;63.17;26.90;;;;;;;11.69;100.00;98987.56;4307930;33;20402;-78
2022/10/14 06:23:06;;;;;;;58.28;26.42;;;;;;;11.58;100.00;98933.56;4306589;33;20399;-79
2022/10/14 06:25:33;;;;;;;57.00;26.08;;;;;;;11.58;100.00;98965.91;4302242;33;20159;-78
2022/10/14 06:28:04;;;;;;;57.92;27.50;;;;;;;11.35;100.00;98933.91;4297675;33;20084;-78
2022/10/14 06:30:31;;;;;;;67.43;27.70;;;;;;;11.13;100.00;98948.25;4293183;33;20033;-79
2022/10/14 06:32:58;;;;;;;69.95;26.83;;;;;;;11.60;100.00;98990.72;4294947;33;20396;-80
2022/10/14 06:35:31;;;;;;;56.30;28.08;;;;;;;11.85;100.00;98986.59;4294227;33;20083;-79
2022/10/14 06:37:58;;;;;;;61.70;27.48;;;;;;;11.30;100.00;98942.75;4291978;33;20044;-78
2022/10/14 06:40:30;;;;;;;60.97;27.08;;;;;;;11.38;100.00;98934.19;4289908;33;20063;-82
2022/10/14 06:42:57;;;;;;;58.67;27.42;;;;;;;11.94;100.00;98963.47;4283752;33;20105;-82
2022/10/14 06:45:24;;;;;;;60.50;25.45;;;;;;;11.38;100.00;98946.88;4246488;33;20042;-80
2022/10/14 06:47:51;;;;;;;50.00;25.58;;;;;;;11.95;100.00;98989.41;4243471;33;20026;-82
2022/10/14 06:50:17;;;;;;;56.15;26.35;;;;;;;12.41;100.00;98980.72;4240930;33;20030;-81
2022/10/14 06:52:45;;;;;;;54.17;25.48;;;;;;;12.04;100.00;98988.91;4249152;33;20415;-82
2022/10/14 06:55:12;;;;;;;56.20;24.85;;;;;;;11.91;100.00;98990.94;4252379;33;20460;-79
2022/10/14 06:57:38;;;;;;;81.65;27.40;;;;;;;12.12;100.00;98996.50;4251524;33;20026;-81
2022/10/14 07:00:05;;;;;;;66.47;26.48;;;;;;;11.75;100.00;98986.53;4265827;33;20045;-80
2022/10/14 07:02:32;;;;;;;53.15;27.10;;;;;;;12.04;100.00;98940.34;4267356;33;20106;-80
2022/10/14 07:04:58;;;;;;;59.03;26.52;;;;;;;12.27;100.00;98985.81;4264179;33;20255;-83
2022/10/14 07:07:25;;;;;;;52.92;25.27;;;;;;;12.22;100.00;98991.19;4264830;33;20059;-83
2022/10/14 07:09:52;;;;;;;53.53;26.05;;;;;;;12.46;100.00;99001.56;4262288;33;20041;-82
2022/10/14 07:12:19;;;;;;;62.65;27.75;;;;;;;12.74;100.00;98991.44;4259946;33;20381;-83
2022/10/14 07:14:45;;;;;;;54.20;25.27;;;;;;;12.43;100.00;98991.28;4260705;33;20120;-84
2022/10/14 07:17:11;;;;;;;57.42;25.30;;;;;;;12.33;100.00;98982.06;4264307;33;20051;-83
2022/10/14 07:19:38;;;;;;;53.67;26.37;;;;;;;12.75;100.00;98993.03;4262392;33;20046;-83
2022/10/14 07:22:04;;;;;;;67.85;27.77;;;;;;;12.63;100.00;98996.78;4268411;33;20058;-83
2022/10/14 07:24:31;;;;;;;57.33;25.52;;;;;;;12.53;100.00;98996.75;4290578;33;20053;-81
2022/10/14 07:26:57;;;;;;;77.47;27.70;;;;;;;13.04;100.00;98998.81;4292462;33;20052;-83
2022/10/14 07:29:24;;;;;;;49.92;25.92;;;;;;;13.34;100.00;98998.09;4291355;33;20037;-83
2022/10/14 07:31:50;;;;;;;58.63;27.83;;;;;;;13.14;100.00;98962.88;4291575;33;20053;-83
2022/10/14 07:34:16;;;;;;;60.65;27.55;;;;;;;13.11;100.00;99006.66;4291419;33;20173;-82
2022/10/14 07:36:43;;;;;;;61.00;28.67;;;;;;;13.53;100.00;99021.88;4294936;33;20573;-83
2022/10/14 07:39:10;;;;;;;58.10;27.27;;;;;;;13.57;100.00;99014.88;4284860;33;20111;-80
2022/10/14 07:41:36;;;;;;;64.25;27.42;;;;;;;13.43;100.00;98971.31;4288357;33;20046;-83
2022/10/14 07:44:07;;;;;;;56.33;27.90;;;;;;;13.38;100.00;98963.19;4303435;33;20045;-83
2022/10/14 07:46:38;;;;;;;55.80;26.73;;;;;;;13.43;100.00;99010.00;4305733;33;20416;-83
2022/10/14 07:49:11;;;;;;;56.55;27.30;;;;;;;13.91;100.00;99015.16;4305620;33;20036;-83
2022/10/14 07:51:39;;;;;;;66.03;27.70;;;;;;;14.18;100.00;99008.59;4286284;33;20063;-82
2022/10/14 07:54:11;;;;;;;59.97;28.15;;;;;;;14.05;100.00;98982.91;4285958;33;20445;-82
2022/10/14 07:56:39;;;;;;;52.75;27.15;;;;;;;14.05;100.00;99011.88;4288534;33;20369;-83
2022/10/14 07:59:06;;;;;;;58.58;28.35;;;;;;;13.99;100.00;98965.88;4292679;33;20021;-83
2022/10/14 08:01:32;;;;;;;61.17;26.25;;;;;;;13.98;100.00;98971.56;4286803;33;20045;-84
2022/10/14 08:03:59;;;;;;;65.82;27.30;;;;;;;14.65;100.00;99003.91;4285519;33;20072;-80
2022/10/14 08:06:26;;;;;;;73.07;28.87;;;;;;;14.79;100.00;98999.50;4285894;33;20193;-83
2022/10/14 08:08:52;;;;;;;57.22;26.67;;;;;;;15.24;100.00;99013.91;4286508;33;20049;-83
2022/10/14 08:11:24;;;;;;;66.50;28.40;;;;;;;14.69;100.00;98961.59;4292002;33;20140;-83
2022/10/14 08:13:51;;;;;;;;;;;;;;;15.31;100.00;99008.16;4291603;33;20438;-81
2022/10/14 08:16:23;;;;;;;62.33;26.65;;;;;;;15.32;100.00;99011.69;4292796;33;19949;-83
2022/10/14 08:18:50;;;;;;;59.40;27.25;;;;;;;15.07;100.00;99008.03;4292714;33;20045;-83
2022/10/14 08:21:18;;;;;;;62.88;25.95;;;;;;;15.22;100.00;99016.09;4292982;33;20399;-83
2022/10/14 08:23:44;;;;;;;54.60;26.52;;;;;;;15.42;100.00;99014.31;4294527;33;20428;-82
2022/10/14 08:26:19;;;;;;;57.83;27.20;;;;;;;14.49;100.00;98949.75;4292580;33;20062;-83
2022/10/14 08:28:46;;;;;;;51.22;26.75;;;;;;;15.12;100.00;99007.19;4290846;33;20059;-82
2022/10/14 08:31:13;;;;;;;46.20;24.87;;;;;;;15.53;100.00;99005.03;4294839;33;20550;-81
2022/10/14 08:33:40;;;;;;;63.33;25.42;;;;;;;15.69;100.00;98953.34;4302969;33;20033;-79
2022/10/14 08:36:07;;;;;;;48.05;24.23;;;;;;;15.83;100.00;98997.75;4300412;33;20374;-83
2022/10/14 08:38:33;;;;;;;48.00;24.70;;;;;;;15.80;100.00;98992.91;4304302;33;20284;-83
2022/10/14 08:41:12;;;;;;;52.08;24.65;;;;;;;15.67;100.00;98958.22;4301402;33;20078;-84
2022/10/14 08:43:47;;;;;;;55.08;26.17;;;;;;;16.36;100.00;98971.72;4296512;33;20037;-80
2022/10/14 08:46:29;;;;;;;57.35;26.77;;;;;;;16.44;100.00;98968.34;4296958;33;20434;-84
2022/10/14 08:49:06;;;;;;;50.83;22.35;;;;;;;16.78;100.00;98994.56;4297256;33;20399;-83
2022/10/14 08:51:33;;;;;;;49.75;25.02;;;;;;;17.14;100.00;98996.84;4309541;33;20130;-84
2022/10/14 08:54:07;;;;;;;44.20;22.08;;;;;;;16.81;100.00;99000.22;4307301;33;20052;-81
2022/10/14 08:56:36;;;;;;;42.30;22.92;;;;;;;16.78;100.00;98995.37;4302726;33;20058;-83
2022/10/14 08:59:13;;;;;;;49.53;23.67;;;;;;;16.14;100.00;98964.87;4309340;33;20032;-84
2022/10/14 09:01:50;;;;;;;51.25;20.85;;;;;;;16.36;100.00;98969.00;4310845;33;20216;-83
2022/10/14 09:04:17;;;;;;;42.33;22.08;;;;;;;15.76;100.00;99008.09;4307733;33;20371;-84
2022/10/14 09:06:47;;;;;;;38.88;20.55;;;;;;;16.09;100.00;99001.03;4296946;33;20427;-84
2022/10/14 09:09:21;;;;;;;43.13;21.75;;;;;;;16.00;100.00;99001.94;4296879;33;20119;-82
2022/10/14 09:11:57;;;;;;;41.72;23.80;;;;;;;16.13;100.00;98990.41;4306503;33;20060;-85
2022/10/14 09:14:30;;;;;;;46.65;22.35;;;;;;;16.17;100.00;98948.00;4304668;33;20067;-82
2022/10/14 09:17:17;;;;;;;45.53;22.25;;;;;;;16.39;100.00;98987.44;4305863;33;20437;-78
2022/10/14 09:19:54;;;;;;;47.97;21.02;;;;;;;15.65;100.00;98990.28;4310275;33;20097;-81
2022/10/14 09:22:22;;;;;;;44.85;22.00;;;;;;;16.25;100.00;98988.09;4308395;33;20198;-81
2022/10/14 09:24:48;;;;;;;52.00;24.30;;;;;;;16.38;100.00;98953.19;4307970;33;20074;-82
2022/10/14 09:27:16;;;;;;;60.75;24.10;;;;;;;16.11;100.00;98949.16;4304191;33;20044;-83
2022/10/14 09:29:50;;;;;;;59.65;22.95;;;;;;;16.56;100.00;98952.44;4302542;33;20071;-84
2022/10/14 09:32:40;;;;;;;47.55;23.35;;;;;;;16.62;100.00;98977.63;4307793;33;20412;-84
2022/10/14 09:35:21;;;;;;;47.85;22.65;;;;;;;16.52;100.00;98997.59;4304042;33;20052;-85
2022/10/14 09:37:47;;;;;;;54.92;25.85;;;;;;;16.41;100.00;98958.06;4303951;33;20051;-79
2022/10/14 09:40:17;;;;;;;48.53;23.60;;;;;;;16.74;100.00;98977.22;4302029;33;20042;-84
2022/10/14 09:42:51;;;;;;;46.47;24.20;;;;;;;16.28;100.00;99003.84;4302118;33;20033;-83
2022/10/14 09:45:21;;;;;;;51.42;25.67;;;;;;;16.03;100.00;98995.94;4302290;33;20464;-82
2022/10/14 09:47:58;;;;;;;41.17;23.77;;;;;;;16.82;100.00;98998.34;4303902;33;20037;-84
2022/10/14 09:50:34;;;;;;;43.95;24.10;;;;;;;17.13;100.00;98989.78;4294643;33;20046;-84
2022/10/14 09:53:12;;;;;;;56.30;24.77;;;;;;;16.57;100.00;98940.47;4292675;33;20045;-83
2022/10/14 09:55:47;;;;;;;49.70;24.52;;;;;;;17.57;100.00;98985.84;4291723;33;20364;-82
2022/10/14 09:58:21;;;;;;;50.72;24.15;;;;;;;17.67;100.00;98982.97;4293122;33;20063;-82
2022/10/14 10:00:55;;;;;;;50.80;25.08;;;;;;;17.47;100.00;98978.66;4291698;33;20053;-82
2022/10/14 10:03:40;;;;;;;43.97;24.48;;;;;;;17.79;100.00;98980.59;4292901;33;20677;-83
2022/10/14 10:06:21;;;;;;;62.05;27.27;;;;;;;18.13;100.00;98971.28;4288406;33;20117;-83
2022/10/14 10:09:00;;;;;;;63.55;27.98;;;;;;;17.22;100.00;98977.13;4291448;33;20060;-82
2022/10/14 10:11:34;;;;;;;46.50;24.73;;;;;;;17.69;100.00;98969.84;4291171;33;20037;-81
2022/10/14 10:14:14;;;;;;;51.35;25.33;;;;;;;18.00;100.00;98936.66;4281367;33;20038;-84
2022/10/14 10:16:41;;;;;;;42.95;23.80;;;;;;;18.15;100.00;98977.22;4294728;33;20074;-84
2022/10/14 10:19:31;;;;;;;46.22;26.73;;;;;;;18.34;100.00;98962.72;4333222;33;20048;-83
2022/10/14 10:22:16;;;;;;;47.55;23.95;;;;;;;18.36;100.00;98938.69;4335031;33;20486;-84
2022/10/14 10:24:46;;;;;;;52.38;25.23;;;;;;;18.51;100.00;98968.38;4334127;33;20445;-81
2022/10/14 10:27:23;;;;;;;51.83;26.20;;;;;;;18.19;100.00;98960.28;4335235;33;20059;-82
2022/10/14 10:29:50;;;;;;;52.97;25.88;;;;;;;18.19;100.00;98938.47;4334012;33;20351;-81
2022/10/14 10:32:28;;;;;;;54.45;26.12;;;;;;;18.35;100.00;98961.62;4322073;33;20431;-81
2022/10/14 10:35:14;;;;;;;43.65;25.08;;;;;;;18.38;100.00;98971.91;4324924;33;20368;-79
2022/10/14 10:38:05;;;;;;;50.10;25.45;;;;;;;18.86;100.00;98967.97;4312115;33;20362;-81
2022/10/14 10:40:40;;;;;;;58.00;26.02;;;;;;;18.86;100.00;98967.97;4310361;33;20381;-82
2022/10/14 10:43:18;;;;;;;46.92;25.15;;;;;;;18.76;100.00;98929.97;4307472;33;20359;-81
2022/10/14 10:46:35;;;;;;;59.53;26.65;;;;;;;19.00;100.00;98960.56;4309011;33;20074;-82
2022/10/14 10:49:12;;;;;;;43.55;22.13;;;;;;;19.14;100.00;98968.69;4265623;33;20053;-82
2022/10/14 10:51:52;;;;;;;48.15;23.67;;;;;;;19.19;100.00;98922.19;4237901;33;20092;-84
2022/10/14 10:54:34;;;;;;;41.60;23.35;;;;;;;19.48;100.00;98967.38;4235821;33;20416;-82
2022/10/14 10:57:12;;;;;;;49.30;25.45;;;;;;;19.57;100.00;98932.72;4250991;33;20043;-82
2022/10/14 10:59:54;;;;;;;44.60;23.25;;;;;;;19.69;100.00;98961.38;4248590;33;20479;-81
2022/10/14 11:02:32;;;;;;;47.42;23.08;;;;;;;19.63;100.00;98962.66;4250101;33;20042;-82
2022/10/14 11:05:37;;;;;;;46.25;25.10;;;;;;;20.01;100.00;98954.03;4251636;33;20056;-80
2022/10/14 11:14:11;;;;;;;38.03;21.27;;;;;;;20.40;100.00;98936.03;4265991;33;20033;-80
2022/10/14 11:17:11;;;;;;;51.45;23.83;;;;;;;20.28;100.00;98945.66;4265123;33;20071;-80
2022/10/14 11:19:46;;;;;;;46.97;23.55;;;;;;;19.00;100.00;98937.91;4268167;33;20112;-80
2022/10/14 11:22:31;;;;;;;40.15;23.45;;;;;;;18.99;100.00;98895.37;4275781;33;20056;-81
2022/10/14 11:25:21;;;;;;;46.45;22.23;;;;;;;19.98;100.00;98941.03;4307643;33;20163;-80
2022/10/14 11:27:57;;;;;;;42.25;22.90;;;;;;;20.46;100.00;98934.75;4299096;33;20474;-81
2022/10/14 11:31:02;;;;;;;46.28;22.27;;;;;;;19.50;100.00;98935.09;4280929;33;20049;-81
2022/10/14 11:34:05;;;;;;;41.00;22.13;;;;;;;19.98;100.00;98935.56;4282372;33;20046;-80